Middleton Island, Alaska
Current Conditions -  °F | °C
As of 3:16 PM on Sunday 25 Jan 2015 (Local Time) from PAMD Reporting Station
Clear Clear  
Wind Chill: 18°   Ceiling: Unl
Heat Index: 30°   Visibility: 10mi
Dew Point: 18°   Wind: 17mph
Humidity: 60%   Direction: 280°W
Pressure: 29.62"   Gusts: 24mph
Location:  59.43°N, 146.33°W
Report Text: PAMD 260016Z 28015G21KT 10SM CLR M01/M08 A2962 RMK AO1
Loading
Personal Weather Stations






























Interactive Weather Map New forecast layout! Learn more

10-Day Weather Forecast

Advertisements
Track Severe Weather on mobile